createdAt,value
2019-03-26T00:00:36.361Z,5.87
2019-03-26T00:03:13.056Z,5.85
2019-03-26T00:05:47.367Z,5.94
2019-03-26T00:08:19.031Z,5.98
2019-03-26T00:10:52.022Z,5.97
2019-03-26T00:13:25.294Z,5.99
2019-03-26T00:15:56.976Z,5.97
2019-03-26T00:18:32.010Z,5.93
2019-03-26T00:21:03.654Z,5.89
2019-03-26T00:23:35.219Z,5.82
2019-03-26T00:26:09.940Z,5.71
2019-03-26T00:28:41.708Z,5.72
2019-03-26T00:31:13.376Z,5.71
2019-03-26T00:33:45.122Z,5.69
2019-03-26T00:36:16.985Z,5.65
2019-03-26T00:38:48.881Z,5.64
2019-03-26T00:41:20.721Z,5.65
2019-03-26T00:43:56.573Z,5.58
2019-03-26T00:46:28.130Z,5.55
2019-03-26T00:48:59.896Z,5.51
2019-03-26T00:51:31.528Z,5.50
2019-03-26T00:54:03.218Z,5.52
2019-03-26T00:56:35.054Z,5.54
2019-03-26T00:59:06.604Z,5.50
2019-03-26T01:01:38.184Z,5.46
2019-03-26T01:04:09.712Z,5.55
2019-03-26T01:06:41.494Z,5.53
2019-03-26T01:09:13.454Z,5.59
2019-03-26T01:11:45.306Z,5.65
2019-03-26T01:14:16.959Z,5.59
2019-03-26T01:16:48.644Z,5.58
2019-03-26T01:19:20.282Z,5.58
2019-03-26T01:21:51.940Z,5.54
2019-03-26T01:24:23.519Z,5.61
2019-03-26T01:26:55.485Z,5.69
2019-03-26T01:29:26.985Z,5.64
2019-03-26T01:31:58.803Z,5.66
2019-03-26T01:34:45.254Z,5.65
2019-03-26T01:37:06.717Z,5.63
2019-03-26T01:39:38.582Z,5.63
2019-03-26T01:42:10.334Z,5.68
2019-03-26T01:44:41.926Z,5.58
2019-03-26T01:47:13.884Z,5.67
2019-03-26T01:49:45.393Z,5.68
2019-03-26T01:52:17.066Z,5.67
2019-03-26T01:54:48.815Z,5.70
2019-03-26T01:57:20.589Z,5.78
2019-03-26T01:59:52.142Z,5.74
2019-03-26T02:02:23.981Z,5.80
2019-03-26T02:05:00.245Z,5.77
2019-03-26T02:07:29.977Z,5.76
2019-03-26T02:10:01.819Z,5.84
2019-03-26T02:12:33.375Z,5.78
2019-03-26T02:15:07.164Z,5.80
2019-03-26T02:17:38.863Z,5.78
2019-03-26T02:20:10.525Z,5.78
2019-03-26T02:22:42.056Z,5.79
2019-03-26T02:25:13.842Z,5.84
2019-03-26T02:27:45.681Z,5.87
2019-03-26T02:30:17.357Z,5.93
2019-03-26T02:32:49.223Z,5.83
2019-03-26T02:35:20.873Z,5.86
2019-03-26T02:37:52.638Z,5.82
2019-03-26T02:40:24.400Z,5.86
2019-03-26T02:42:57.297Z,5.91
2019-03-26T02:45:28.746Z,5.88
2019-03-26T02:48:00.396Z,5.87
2019-03-26T02:50:32.254Z,5.92
2019-03-26T02:53:03.996Z,5.87
2019-03-26T02:55:35.875Z,5.84
2019-03-26T02:58:08.578Z,5.82
2019-03-26T03:00:39.991Z,5.84
2019-03-26T03:03:11.855Z,5.91
2019-03-26T03:05:43.639Z,5.87
2019-03-26T03:08:15.299Z,5.86
2019-03-26T03:10:46.952Z,5.86
2019-03-26T03:13:19.941Z,5.89
2019-03-26T03:15:51.678Z,5.84
2019-03-26T03:18:23.456Z,5.87
2019-03-26T03:20:54.894Z,5.90
2019-03-26T03:23:26.667Z,5.88
2019-03-26T03:25:58.325Z,5.91
2019-03-26T03:28:29.890Z,5.85
2019-03-26T03:31:01.334Z,5.80
2019-03-26T03:33:33.097Z,5.78
2019-03-26T03:36:04.665Z,5.82
2019-03-26T03:38:36.393Z,5.83
2019-03-26T03:41:08.165Z,5.80
2019-03-26T03:43:39.827Z,5.82
2019-03-26T03:46:11.689Z,5.87
2019-03-26T03:48:43.347Z,5.83
2019-03-26T03:51:15.193Z,5.88
2019-03-26T03:53:46.843Z,5.84
2019-03-26T03:56:18.540Z,5.81
2019-03-26T03:58:50.384Z,5.84
2019-03-26T04:01:22.038Z,5.86
2019-03-26T04:03:53.600Z,5.84
2019-03-26T04:06:25.444Z,5.85
2019-03-26T04:08:57.201Z,5.82
2019-03-26T04:11:28.758Z,5.85
2019-03-26T04:14:00.753Z,5.87
2019-03-26T04:16:32.403Z,5.90
2019-03-26T04:19:04.064Z,5.93
2019-03-26T04:21:35.909Z,5.94
2019-03-26T04:24:07.558Z,5.90
2019-03-26T04:26:39.543Z,5.89
2019-03-26T04:29:11.309Z,5.89
2019-03-26T04:31:42.757Z,5.87
2019-03-26T04:34:14.607Z,5.95
2019-03-26T04:36:46.063Z,6.00
2019-03-26T04:39:17.630Z,5.95
2019-03-26T04:41:49.263Z,5.96
2019-03-26T04:44:20.906Z,5.95
2019-03-26T04:46:52.697Z,5.95
2019-03-26T04:49:24.451Z,6.10
2019-03-26T04:51:56.300Z,6.07
2019-03-26T04:54:28.082Z,6.04
2019-03-26T04:56:59.674Z,6.05
2019-03-26T04:59:31.503Z,6.10
2019-03-26T05:02:03.290Z,6.12
2019-03-26T05:04:35.224Z,6.13
2019-03-26T05:07:06.861Z,6.12
2019-03-26T05:09:38.429Z,6.19
2019-03-26T05:12:10.129Z,6.20
2019-03-26T05:14:42.032Z,6.23
2019-03-26T05:17:13.794Z,6.27
2019-03-26T05:19:45.573Z,6.35
2019-03-26T05:22:24.202Z,6.31
2019-03-26T05:24:50.633Z,6.36
2019-03-26T05:27:23.523Z,6.39
2019-03-26T05:29:55.495Z,6.42
2019-03-26T05:32:26.930Z,6.44
2019-03-26T05:34:58.693Z,6.47
2019-03-26T05:37:30.378Z,6.56
2019-03-26T05:40:02.004Z,6.59
2019-03-26T05:42:33.747Z,6.70
2019-03-26T05:45:07.763Z,6.70
2019-03-26T05:47:39.223Z,6.84
2019-03-26T05:50:10.899Z,6.87
2019-03-26T05:52:42.659Z,6.88
2019-03-26T05:55:14.099Z,6.91
2019-03-26T05:57:45.656Z,6.88
2019-03-26T06:00:20.092Z,6.89
2019-03-26T06:02:51.198Z,6.89
2019-03-26T06:05:22.879Z,6.93
2019-03-26T06:07:54.545Z,6.96
2019-03-26T06:10:26.197Z,6.97
2019-03-26T06:12:57.791Z,7.00
2019-03-26T06:15:29.308Z,7.07
2019-03-26T06:18:01.264Z,7.10
2019-03-26T06:20:32.911Z,7.20
2019-03-26T06:23:04.792Z,7.26
2019-03-26T06:25:36.560Z,7.41
2019-03-26T06:28:08.313Z,7.55
2019-03-26T06:30:39.973Z,7.72
2019-03-26T06:33:11.840Z,8.01
2019-03-26T06:35:43.580Z,8.12
2019-03-26T06:38:15.545Z,8.19
2019-03-26T06:40:47.204Z,8.24
2019-03-26T06:43:18.770Z,8.29
2019-03-26T06:45:50.619Z,8.38
2019-03-26T06:48:22.397Z,8.51
2019-03-26T06:50:54.470Z,8.60
2019-03-26T06:53:26.384Z,8.71
2019-03-26T06:55:57.984Z,8.98
2019-03-26T06:58:29.539Z,8.99
2019-03-26T07:01:01.504Z,9.01
2019-03-26T07:03:33.363Z,9.11
2019-03-26T07:06:04.799Z,9.13
2019-03-26T07:08:36.452Z,9.28
2019-03-26T07:11:08.325Z,9.42
2019-03-26T07:13:40.030Z,9.63
2019-03-26T07:16:11.550Z,9.80
2019-03-26T07:18:43.183Z,9.81
2019-03-26T07:21:15.067Z,9.87
2019-03-26T07:23:46.687Z,9.77
2019-03-26T07:26:18.575Z,9.77
2019-03-26T07:28:50.131Z,9.85
2019-03-26T07:31:21.807Z,10.05
2019-03-26T07:33:53.654Z,10.17
2019-03-26T07:36:25.529Z,10.26
2019-03-26T07:38:57.369Z,10.17
2019-03-26T07:41:29.141Z,10.07
2019-03-26T07:44:00.915Z,9.99
2019-03-26T07:46:32.671Z,9.85
2019-03-26T07:49:04.516Z,9.81
2019-03-26T07:51:36.518Z,9.76
2019-03-26T07:54:08.239Z,9.84
2019-03-26T07:56:41.368Z,9.87
2019-03-26T07:59:13.004Z,9.85
2019-03-26T08:01:44.770Z,9.87
2019-03-26T08:04:16.411Z,9.95
2019-03-26T08:06:48.499Z,10.02
2019-03-26T08:09:20.252Z,10.02
2019-03-26T08:11:51.795Z,9.95
2019-03-26T08:14:23.532Z,10.03
2019-03-26T08:16:55.038Z,10.09
2019-03-26T08:19:26.666Z,10.22
2019-03-26T08:21:58.522Z,10.33
2019-03-26T08:24:30.192Z,10.53
2019-03-26T08:27:01.957Z,10.75
2019-03-26T08:29:35.540Z,10.83
2019-03-26T08:32:07.217Z,11.05
2019-03-26T08:34:38.877Z,11.04
2019-03-26T08:37:10.708Z,11.07
2019-03-26T08:39:42.394Z,11.06
2019-03-26T08:42:14.041Z,11.03
2019-03-26T08:44:45.917Z,10.97
2019-03-26T08:47:17.879Z,10.74
2019-03-26T08:49:49.436Z,10.52
2019-03-26T08:52:21.292Z,10.38
2019-03-26T08:54:52.854Z,10.28
2019-03-26T08:57:24.492Z,10.34
2019-03-26T08:59:57.396Z,10.25
2019-03-26T09:02:29.052Z,10.12
2019-03-26T09:05:00.497Z,10.02
2019-03-26T09:07:32.367Z,9.89
2019-03-26T09:10:04.331Z,9.82
2019-03-26T09:12:35.798Z,9.80
2019-03-26T09:15:09.849Z,9.80
2019-03-26T09:17:44.213Z,9.86
2019-03-26T09:20:15.829Z,10.01
2019-03-26T09:22:47.641Z,10.11
2019-03-26T09:25:19.403Z,10.28
2019-03-26T09:27:52.487Z,10.48
2019-03-26T09:30:24.152Z,10.69
2019-03-26T09:32:56.020Z,10.79
2019-03-26T09:35:27.665Z,10.92
2019-03-26T09:37:59.331Z,10.97
2019-03-26T09:40:31.176Z,10.94
2019-03-26T09:43:02.838Z,11.07
2019-03-26T09:45:34.807Z,11.13
2019-03-26T09:48:06.460Z,11.28
2019-03-26T09:50:38.338Z,11.27
2019-03-26T09:53:10.095Z,11.33
2019-03-26T09:55:41.557Z,11.29
2019-03-26T09:58:13.293Z,11.27
2019-03-26T10:00:45.167Z,11.27
2019-03-26T10:03:16.833Z,11.28
2019-03-26T10:05:48.471Z,11.30
2019-03-26T10:08:20.127Z,11.36
2019-03-26T10:10:52.008Z,11.43
2019-03-26T10:13:23.547Z,11.48
2019-03-26T10:15:55.506Z,11.63
2019-03-26T10:18:27.186Z,11.67
2019-03-26T10:21:00.170Z,11.73
2019-03-26T10:23:31.916Z,11.65
2019-03-26T10:26:04.411Z,11.71
2019-03-26T10:28:35.946Z,11.90
2019-03-26T10:31:07.520Z,12.07
2019-03-26T10:33:39.381Z,12.22
2019-03-26T10:36:10.940Z,12.20
2019-03-26T10:38:42.586Z,12.33
2019-03-26T10:41:14.344Z,12.37
2019-03-26T10:43:46.017Z,12.37
2019-03-26T10:46:17.776Z,12.43
2019-03-26T10:48:49.421Z,12.48
2019-03-26T10:51:20.985Z,12.48
2019-03-26T10:53:52.859Z,12.48
2019-03-26T10:56:24.492Z,12.43
2019-03-26T10:58:56.163Z,12.21
2019-03-26T11:01:27.602Z,12.22
2019-03-26T11:03:59.483Z,12.29
2019-03-26T11:06:31.341Z,12.47
2019-03-26T11:09:04.433Z,12.65
2019-03-26T11:11:36.087Z,12.78
2019-03-26T11:14:07.536Z,12.73
2019-03-26T11:16:39.325Z,12.73
2019-03-26T11:19:10.952Z,12.76
2019-03-26T11:21:42.510Z,12.83
2019-03-26T11:24:15.495Z,12.85
2019-03-26T11:26:47.269Z,12.74
2019-03-26T11:29:18.930Z,12.67
2019-03-26T11:31:50.591Z,12.70
2019-03-26T11:34:22.232Z,12.68
2019-03-26T11:36:54.007Z,12.74
2019-03-26T11:39:32.762Z,12.76
2019-03-26T11:41:58.636Z,12.98
2019-03-26T11:44:30.088Z,13.19
2019-03-26T11:47:02.055Z,13.31
2019-03-26T11:49:33.626Z,13.33
2019-03-26T11:52:05.491Z,13.41
2019-03-26T11:54:37.214Z,13.39
2019-03-26T11:57:08.781Z,13.25
2019-03-26T11:59:40.572Z,13.04
2019-03-26T12:02:12.447Z,12.89
2019-03-26T12:04:44.269Z,12.80
2019-03-26T12:07:15.840Z,12.71
2019-03-26T12:09:47.476Z,12.58
2019-03-26T12:12:19.895Z,12.41
2019-03-26T12:14:57.730Z,12.44
2019-03-26T12:17:31.382Z,12.52
2019-03-26T12:20:03.426Z,12.63
2019-03-26T12:22:34.969Z,12.73
2019-03-26T12:25:07.352Z,12.75
2019-03-26T12:27:39.020Z,12.89
2019-03-26T12:30:10.664Z,13.01
2019-03-26T12:32:42.655Z,13.04
2019-03-26T12:35:17.274Z,13.04
2019-03-26T12:37:48.942Z,13.06
2019-03-26T12:40:20.688Z,13.16
2019-03-26T12:42:52.556Z,13.26
2019-03-26T12:45:24.220Z,13.26
2019-03-26T12:47:55.873Z,13.34
2019-03-26T12:50:27.415Z,13.18
2019-03-26T12:52:58.780Z,13.18
2019-03-26T12:55:30.644Z,13.17
2019-03-26T12:58:01.981Z,13.23
2019-03-26T13:00:33.855Z,13.31
2019-03-26T13:03:05.513Z,13.45
2019-03-26T13:05:36.947Z,13.42
2019-03-26T13:08:08.810Z,13.37
2019-03-26T13:10:52.905Z,13.49
2019-03-26T13:13:13.785Z,13.58
2019-03-26T13:15:45.444Z,13.64
2019-03-26T13:18:17.001Z,13.73
2019-03-26T13:20:49.050Z,13.55
2019-03-26T13:23:20.617Z,13.48
2019-03-26T13:25:52.457Z,13.39
2019-03-26T13:28:24.035Z,13.36
2019-03-26T13:30:55.466Z,13.27
2019-03-26T13:33:27.131Z,13.15
2019-03-26T13:35:58.803Z,13.11
2019-03-26T13:38:30.647Z,13.24
2019-03-26T13:41:02.308Z,13.25
2019-03-26T13:43:34.186Z,13.13
2019-03-26T13:46:05.845Z,13.03
2019-03-26T13:48:37.484Z,13.00
2019-03-26T13:51:09.263Z,12.97
2019-03-26T13:53:40.918Z,12.85
2019-03-26T13:56:12.461Z,12.88
2019-03-26T13:58:44.126Z,12.88
2019-03-26T14:01:15.768Z,12.92
2019-03-26T14:03:47.632Z,12.97
2019-03-26T14:06:19.308Z,13.02
2019-03-26T14:08:51.069Z,12.99
2019-03-26T14:11:22.725Z,12.97
2019-03-26T14:13:54.463Z,12.89
2019-03-26T14:16:26.140Z,12.85
2019-03-26T14:18:58.106Z,12.77
2019-03-26T14:21:29.660Z,12.76
2019-03-26T14:24:01.315Z,12.64
2019-03-26T14:26:33.075Z,12.52
2019-03-26T14:29:04.631Z,12.45
2019-03-26T14:31:36.496Z,12.35
2019-03-26T14:34:08.078Z,12.29
2019-03-26T14:36:40.009Z,12.11
2019-03-26T14:39:11.598Z,12.04
2019-03-26T14:41:43.224Z,11.95
2019-03-26T14:44:14.866Z,11.85
2019-03-26T14:46:46.520Z,11.77
2019-03-26T14:49:18.400Z,11.67
2019-03-26T14:51:50.059Z,11.59
2019-03-26T14:54:21.907Z,11.61
2019-03-26T14:56:53.477Z,11.51
2019-03-26T14:59:25.034Z,11.44
2019-03-26T15:01:57.807Z,11.39
2019-03-26T15:04:29.274Z,11.34
2019-03-26T15:07:01.120Z,11.28
2019-03-26T15:09:32.802Z,11.21
2019-03-26T15:12:04.654Z,11.15
2019-03-26T15:14:36.314Z,11.10
2019-03-26T15:17:08.283Z,11.06
2019-03-26T15:19:40.052Z,11.02
2019-03-26T15:22:11.803Z,10.98
2019-03-26T15:24:44.634Z,10.93
2019-03-26T15:27:18.220Z,10.88
2019-03-26T15:29:49.643Z,10.83
2019-03-26T15:32:21.074Z,10.78
2019-03-26T15:34:52.649Z,10.77
2019-03-26T15:37:24.596Z,10.73
2019-03-26T15:39:56.168Z,10.71
2019-03-26T15:42:27.924Z,10.68
2019-03-26T15:44:59.611Z,10.66
2019-03-26T15:47:31.145Z,10.63
2019-03-26T15:50:02.804Z,10.55
2019-03-26T15:52:34.456Z,10.53
2019-03-26T15:55:06.826Z,10.48
2019-03-26T15:57:39.003Z,10.42
2019-03-26T16:00:11.525Z,10.37
2019-03-26T16:02:46.289Z,10.32
2019-03-26T16:05:18.190Z,10.28
2019-03-26T16:07:49.842Z,10.28
2019-03-26T16:10:22.319Z,10.17
2019-03-26T16:12:54.043Z,10.01
2019-03-26T16:15:25.707Z,9.85
2019-03-26T16:17:57.390Z,9.71
2019-03-26T16:20:30.672Z,9.56
2019-03-26T16:23:02.318Z,9.41
2019-03-26T16:25:34.282Z,9.29
2019-03-26T16:28:07.184Z,9.20
2019-03-26T16:30:38.942Z,9.04
2019-03-26T16:33:10.598Z,8.95
2019-03-26T16:35:42.444Z,8.84
2019-03-26T16:38:14.006Z,8.74
2019-03-26T16:40:45.676Z,8.62
2019-03-26T16:43:17.475Z,8.55
2019-03-26T16:45:49.080Z,8.49
2019-03-26T16:48:20.834Z,8.42
2019-03-26T16:50:52.648Z,8.36
2019-03-26T16:53:30.525Z,8.32
2019-03-26T16:56:02.181Z,8.26
2019-03-26T17:01:14.813Z,8.15
2019-03-26T17:03:46.656Z,8.13
2019-03-26T17:06:18.533Z,8.08
2019-03-26T17:08:50.102Z,8.07
2019-03-26T17:11:21.949Z,8.03
2019-03-26T17:13:53.505Z,8.00
2019-03-26T17:16:25.365Z,7.90
2019-03-26T17:18:57.124Z,7.86
2019-03-26T17:21:28.970Z,7.80
2019-03-26T17:24:01.485Z,7.77
2019-03-26T17:26:33.111Z,7.73
2019-03-26T17:29:05.091Z,7.70
2019-03-26T17:31:43.963Z,7.63
2019-03-26T17:34:15.884Z,7.55
2019-03-26T17:36:47.564Z,7.48
2019-03-26T17:39:19.392Z,7.46
2019-03-26T17:41:51.132Z,7.43
2019-03-26T17:44:22.719Z,7.41
2019-03-26T17:46:54.874Z,7.40
2019-03-26T17:49:26.512Z,7.36
2019-03-26T17:51:58.644Z,7.32
2019-03-26T17:54:30.355Z,7.32
2019-03-26T17:57:14.878Z,7.32
2019-03-26T17:59:48.114Z,7.31
2019-03-26T18:02:19.666Z,7.29
2019-03-26T18:04:51.982Z,7.30
2019-03-26T18:07:23.604Z,7.32
2019-03-26T18:09:55.355Z,7.28
2019-03-26T18:12:31.129Z,7.29
2019-03-26T18:15:00.357Z,7.30
2019-03-26T18:17:31.746Z,7.27
2019-03-26T18:20:03.921Z,7.27
2019-03-26T18:22:36.393Z,7.25
2019-03-26T18:25:08.945Z,7.24
2019-03-26T18:27:41.258Z,7.24
2019-03-26T18:30:12.803Z,7.24
2019-03-26T18:32:44.685Z,7.23
2019-03-26T18:35:16.442Z,7.22
2019-03-26T18:37:48.195Z,7.22
2019-03-26T18:40:20.004Z,7.21
2019-03-26T18:42:51.412Z,7.19
2019-03-26T18:45:22.938Z,7.17
2019-03-26T18:47:54.696Z,7.15
2019-03-26T18:50:26.365Z,7.14
2019-03-26T18:52:57.931Z,7.12
2019-03-26T18:55:29.705Z,7.12
2019-03-26T18:58:01.452Z,7.11
2019-03-26T19:00:38.143Z,7.10
2019-03-26T19:03:09.790Z,7.10
2019-03-26T19:05:41.447Z,7.07
2019-03-26T19:08:14.756Z,7.08
2019-03-26T19:10:46.602Z,7.07
2019-03-26T19:13:20.094Z,7.01
2019-03-26T19:15:51.236Z,6.97
2019-03-26T19:18:23.109Z,6.96
2019-03-26T19:21:02.036Z,6.94
2019-03-26T19:23:27.752Z,6.90
2019-03-26T19:25:59.942Z,6.86
2019-03-26T19:28:31.693Z,6.84
2019-03-26T19:31:05.680Z,6.81
2019-03-26T19:33:37.557Z,6.79
2019-03-26T19:36:09.406Z,6.76
2019-03-26T19:38:40.974Z,6.74
2019-03-26T19:41:13.144Z,6.71
2019-03-26T19:43:44.880Z,6.66
2019-03-26T19:46:16.454Z,6.61
2019-03-26T19:48:48.113Z,6.59
2019-03-26T19:51:19.957Z,6.55
2019-03-26T19:53:51.720Z,6.52
2019-03-26T19:56:23.576Z,6.47
2019-03-26T19:58:55.458Z,6.44
2019-03-26T20:01:27.032Z,6.40
2019-03-26T20:04:19.667Z,6.38
2019-03-26T20:06:52.134Z,6.35
2019-03-26T20:09:24.078Z,6.29
2019-03-26T20:11:55.569Z,6.23
2019-03-26T20:14:27.816Z,6.24
2019-03-26T20:16:59.585Z,6.17
2019-03-26T20:19:31.236Z,6.19
2019-03-26T20:22:02.976Z,6.17
2019-03-26T20:24:46.548Z,6.15
2019-03-26T20:27:18.086Z,6.13
2019-03-26T20:29:49.541Z,6.10
2019-03-26T20:32:21.460Z,6.05
2019-03-26T20:34:53.456Z,5.99
2019-03-26T20:37:27.068Z,5.93
2019-03-26T20:39:58.623Z,5.88
2019-03-26T20:42:30.403Z,5.83
2019-03-26T20:45:02.071Z,5.77
2019-03-26T20:47:33.691Z,5.73
2019-03-26T20:50:08.342Z,5.68
2019-03-26T20:52:39.868Z,5.63
2019-03-26T20:55:12.034Z,5.57
2019-03-26T20:57:45.437Z,5.53
2019-03-26T21:00:20.075Z,5.48
2019-03-26T21:02:51.618Z,5.44
2019-03-26T21:05:23.496Z,5.42
2019-03-26T21:07:56.176Z,5.38
2019-03-26T21:10:27.968Z,5.36
2019-03-26T21:12:59.387Z,5.32
2019-03-26T21:15:31.140Z,5.29
2019-03-26T21:18:03.000Z,5.27
2019-03-26T21:20:34.761Z,5.26
2019-03-26T21:23:06.722Z,5.24
2019-03-26T21:25:38.471Z,5.24
2019-03-26T21:28:09.933Z,5.23
2019-03-26T21:30:41.508Z,5.23
2019-03-26T21:33:13.023Z,5.22
2019-03-26T21:35:44.786Z,5.23
2019-03-26T21:38:16.541Z,5.21
2019-03-26T21:40:48.511Z,5.18
2019-03-26T21:43:21.947Z,5.16
2019-03-26T21:45:53.576Z,5.14
2019-03-26T21:48:25.774Z,5.12
2019-03-26T21:50:57.736Z,5.08
2019-03-26T21:53:29.262Z,5.05
2019-03-26T21:56:06.829Z,5.01
2019-03-26T21:58:34.518Z,4.97
2019-03-26T22:01:05.974Z,4.94
2019-03-26T22:03:37.802Z,4.90
2019-03-26T22:06:09.204Z,4.86
2019-03-26T22:08:41.573Z,4.83
2019-03-26T22:11:13.151Z,4.78
2019-03-26T22:13:44.472Z,4.75
2019-03-26T22:16:15.954Z,4.70
2019-03-26T22:18:47.786Z,4.64
2019-03-26T22:21:19.667Z,4.56
2019-03-26T22:23:51.180Z,4.49
2019-03-26T22:26:22.729Z,4.41
2019-03-26T22:28:54.299Z,4.32
2019-03-26T22:31:25.859Z,4.25
2019-03-26T22:33:57.612Z,4.18
2019-03-26T22:36:29.258Z,4.10
2019-03-26T22:39:01.035Z,4.02
2019-03-26T22:41:34.237Z,3.94
2019-03-26T22:44:05.677Z,3.84
2019-03-26T22:46:37.528Z,3.74
2019-03-26T22:49:09.208Z,3.67
2019-03-26T22:51:40.759Z,3.61
2019-03-26T22:54:12.615Z,3.53
2019-03-26T22:56:44.383Z,3.44
2019-03-26T22:59:16.017Z,3.35
2019-03-26T23:01:47.878Z,3.26
2019-03-26T23:04:20.095Z,3.16
2019-03-26T23:06:51.612Z,3.05
2019-03-26T23:09:23.601Z,2.96
2019-03-26T23:11:55.037Z,2.85
2019-03-26T23:14:27.924Z,2.76
2019-03-26T23:16:59.485Z,2.68
2019-03-26T23:19:31.240Z,2.60
2019-03-26T23:22:02.790Z,2.53
2019-03-26T23:24:34.546Z,2.46
2019-03-26T23:27:06.206Z,2.37
2019-03-26T23:29:39.254Z,2.30
2019-03-26T23:32:11.537Z,2.23
2019-03-26T23:34:43.305Z,2.14
2019-03-26T23:37:15.295Z,2.09
2019-03-26T23:39:47.132Z,2.04
2019-03-26T23:42:18.711Z,2.00
2019-03-26T23:44:58.195Z,1.93
2019-03-26T23:47:23.693Z,1.86
2019-03-26T23:49:55.313Z,1.78
2019-03-26T23:52:27.073Z,1.70
2019-03-26T23:54:58.612Z,1.64
2019-03-26T23:57:30.981Z,1.56
